Flight Track Log - Related Links

Times and Time Zones

All times are in EDT time to prevent confusion due to time zone crossing. See the DAL3673 flight status page for this flight to view local times or setup timezone preferences in your user account.

Time Position Orientation Groundspeed Altitude Reporting Facility
EDT Latitude Longitude Course Direction KTS MPH feet Rate Location/Type
Mon 03:40:18 PM 44.8333 -93.2000 83° East 163 188 2,500  Level Minneapolis TRACON
Mon 03:40:43 PM 44.8339 -93.1933 83° East 172 198 2,700 1,674 Climbing Minneapolis Center
Mon 03:41:44 PM 44.7961 -93.1247 128° Southeast 231 266 4,900 2,732 Climbing Minneapolis Center
Mon 03:42:46 PM 44.7336 -93.0292 133° Southeast 274 315 8,300 2,806 Climbing Minneapolis Center
Mon 03:43:48 PM 44.6783 -92.9464 133° Southeast 287 330 10,700 1,317 Climbing Minneapolis Center
Mon 03:44:49 PM 44.6261 -92.8331 123° Southeast 348 400 11,000 146 Climbing Minneapolis Center
Mon 03:45:51 PM 44.5700 -92.7122 123° Southeast 370 426 11,000  Level Minneapolis Center
Mon 03:46:53 PM 44.5125 -92.5881 123° Southeast 380 437 11,000  Level Minneapolis Center
Mon 03:47:54 PM 44.4533 -92.4614 123° Southeast 390 449 11,000  Level Minneapolis Center
Mon 03:48:56 PM 44.3961 -92.3403 123° Southeast 392 451 11,000  Level Minneapolis Center
Mon 03:49:58 PM 44.3269 -92.1925 123° Southeast 394 453 11,000  Level Minneapolis Center
Mon 03:51:00 PM 44.2628 -92.0572 123° Southeast 388 447 11,000  Level Minneapolis Center
Mon 03:52:01 PM 44.2122 -91.9511 124° Southeast 328 377 11,000 -49 Level Minneapolis Center
Mon 03:53:03 PM 44.1586 -91.8375 123° Southeast 326 375 10,900 -1,016 Descending Minneapolis Center
Mon 03:54:05 PM 44.1119 -91.7386 123° Southeast 312 359 8,900 -2,032 Descending Minneapolis Center
Mon 03:55:07 PM 44.0658 -91.6431 124° Southeast 281 323 6,700 -1,902 Descending Minneapolis Center
Mon 03:56:08 PM 44.0239 -91.5547 123° Southeast 277 319 5,000 -1,317 Descending Minneapolis Center
Mon 03:57:10 PM 43.9808 -91.4667 124° Southeast 260 299 4,000 -823 Descending Minneapolis Center
Mon 03:58:12 PM 43.9764 -91.3706 94° East 260 299 3,300 -780 Descending Minneapolis Center
Mon 03:59:13 PM 43.9744 -91.2753 92° East 246 283 2,400 -634 Descending Minneapolis Center
Mon 04:00:15 PM 43.9322 -91.2422 151° Southeast 214 246 2,000 -387 Descending Minneapolis Center
Mon 04:02:00 PM 43.8793 -91.2566 125° Southeast  Level Estimated

Login

Don't have an account? Register now (free) for customized features, flight alerts, and more!